createdAt,value
2023-12-11T00:00:15.376Z,58.38
2023-12-11T00:01:15.492Z,58.17
2023-12-11T00:02:15.408Z,56.81
2023-12-11T00:03:15.444Z,56.81
2023-12-11T00:04:15.534Z,58.70
2023-12-11T00:05:15.506Z,58.67
2023-12-11T00:06:15.472Z,57.16
2023-12-11T00:07:15.534Z,58.78
2023-12-11T00:08:15.489Z,57.92
2023-12-11T00:09:15.493Z,57.70
2023-12-11T00:10:15.603Z,57.66
2023-12-11T00:11:15.536Z,57.06
2023-12-11T00:12:15.564Z,58.92
2023-12-11T00:13:15.613Z,58.18
2023-12-11T00:14:15.615Z,57.86
2023-12-11T00:15:15.640Z,58.27
2023-12-11T00:16:15.639Z,58.08
2023-12-11T00:17:15.650Z,60.23
2023-12-11T00:18:15.724Z,57.15
2023-12-11T00:19:15.872Z,57.13
2023-12-11T00:20:15.693Z,58.53
2023-12-11T00:21:15.722Z,56.69
2023-12-11T00:22:15.778Z,58.13
2023-12-11T00:23:15.768Z,58.87
2023-12-11T00:24:15.765Z,58.87
2023-12-11T00:25:15.803Z,59.55
2023-12-11T00:26:15.807Z,58.32
2023-12-11T00:27:15.822Z,59.69
2023-12-11T00:28:15.915Z,58.20
2023-12-11T00:29:15.851Z,56.51
2023-12-11T00:30:15.901Z,57.27
2023-12-11T00:31:16.016Z,59.53
2023-12-11T00:32:15.905Z,57.64
2023-12-11T00:33:16.005Z,58.63
2023-12-11T00:34:16.010Z,58.35
2023-12-11T00:35:15.965Z,58.11
2023-12-11T00:36:15.987Z,58.95
2023-12-11T00:37:16.002Z,57.82
2023-12-11T00:38:16.020Z,59.87
2023-12-11T00:39:16.027Z,59.95
2023-12-11T00:40:16.094Z,59.88
2023-12-11T00:41:16.065Z,58.33
2023-12-11T00:42:16.076Z,59.96
2023-12-11T00:43:16.139Z,61.17
2023-12-11T00:44:16.104Z,58.84
2023-12-11T00:45:16.115Z,57.67
2023-12-11T00:46:16.153Z,56.77
2023-12-11T00:47:16.274Z,58.74
2023-12-11T00:48:16.236Z,57.59
2023-12-11T00:49:16.320Z,57.88
2023-12-11T00:50:16.246Z,58.51
2023-12-11T00:51:16.243Z,57.39
2023-12-11T00:52:16.283Z,58.09
2023-12-11T00:53:16.280Z,58.21
2023-12-11T00:54:16.307Z,58.71
2023-12-11T00:55:16.366Z,58.21
2023-12-11T00:56:16.471Z,57.48
2023-12-11T00:57:16.340Z,58.76
2023-12-11T00:58:16.504Z,58.59
2023-12-11T00:59:16.449Z,56.90
2023-12-11T01:00:16.398Z,57.35
2023-12-11T01:01:16.478Z,58.83
2023-12-11T01:02:16.403Z,57.64
2023-12-11T01:03:16.459Z,55.80
2023-12-11T01:04:16.481Z,58.56
2023-12-11T01:05:16.506Z,56.93
2023-12-11T01:06:16.453Z,60.39
2023-12-11T01:07:16.555Z,58.38
2023-12-11T01:08:16.519Z,59.16
2023-12-11T01:09:16.540Z,58.43
2023-12-11T01:10:16.590Z,57.47
2023-12-11T01:11:16.568Z,57.88
2023-12-11T01:12:16.588Z,58.02
2023-12-11T01:13:16.590Z,58.44
2023-12-11T01:14:16.596Z,57.52
2023-12-11T01:15:16.626Z,57.00
2023-12-11T01:16:16.745Z,60.06
2023-12-11T01:17:37.268Z,57.95
2023-12-11T01:18:17.719Z,58.08
2023-12-11T01:19:16.791Z,58.29
2023-12-11T01:20:16.678Z,58.41
2023-12-11T01:21:16.650Z,57.96
2023-12-11T01:22:16.649Z,61.59
2023-12-11T01:23:16.680Z,59.52
2023-12-11T01:24:16.651Z,57.88
2023-12-11T01:25:16.734Z,58.45
2023-12-11T01:26:16.657Z,59.23
2023-12-11T01:27:16.669Z,59.17
2023-12-11T01:28:16.710Z,58.68
2023-12-11T01:29:16.668Z,58.01
2023-12-11T01:30:16.670Z,58.91
2023-12-11T01:31:16.754Z,59.46
2023-12-11T01:32:16.682Z,57.42
2023-12-11T01:33:16.811Z,58.05
2023-12-11T01:34:16.752Z,60.06
2023-12-11T01:35:16.719Z,57.82
2023-12-11T01:36:16.690Z,55.98
2023-12-11T01:37:16.706Z,58.35
2023-12-11T01:38:16.700Z,59.38
2023-12-11T01:39:16.698Z,55.88
2023-12-11T01:40:16.796Z,58.53
2023-12-11T01:41:16.715Z,57.88
2023-12-11T01:42:16.720Z,58.10
2023-12-11T01:43:18.839Z,58.55
2023-12-11T01:44:16.774Z,58.74
2023-12-11T01:45:16.730Z,58.38
2023-12-11T01:46:16.775Z,56.60
2023-12-11T01:47:16.795Z,58.82
2023-12-11T01:48:17.003Z,59.34
2023-12-11T01:49:16.926Z,58.46
2023-12-11T01:50:16.753Z,60.27
2023-12-11T01:51:16.764Z,60.36
2023-12-11T01:52:16.787Z,58.38
2023-12-11T01:53:16.771Z,57.31
2023-12-11T01:54:16.777Z,57.02
2023-12-11T01:55:16.769Z,61.13
2023-12-11T01:56:16.771Z,59.42
2023-12-11T01:57:16.764Z,57.00
2023-12-11T01:58:16.796Z,58.09
2023-12-11T01:59:16.807Z,56.75
2023-12-11T02:00:16.785Z,58.70
2023-12-11T02:01:16.883Z,60.96
2023-12-11T02:02:16.788Z,59.81
2023-12-11T02:03:16.892Z,57.83
2023-12-11T02:04:16.859Z,58.25
2023-12-11T02:05:16.816Z,59.66
2023-12-11T02:06:16.789Z,57.91
2023-12-11T02:07:16.791Z,58.53
2023-12-11T02:08:16.765Z,57.35
2023-12-11T02:09:16.776Z,59.81
2023-12-11T02:10:16.819Z,56.44
2023-12-11T02:11:16.776Z,58.14
2023-12-11T02:12:16.775Z,58.03
2023-12-11T02:13:16.802Z,60.10
2023-12-11T02:14:16.787Z,57.35
2023-12-11T02:15:16.805Z,60.51
2023-12-11T02:16:16.876Z,59.64
2023-12-11T02:17:16.790Z,59.43
2023-12-11T02:18:16.962Z,58.51
2023-12-11T02:19:16.911Z,59.11
2023-12-11T02:20:16.804Z,57.09
2023-12-11T02:21:16.820Z,58.62
2023-12-11T02:22:16.864Z,58.22
2023-12-11T02:23:16.824Z,57.80
2023-12-11T02:24:16.836Z,58.90
2023-12-11T02:25:16.855Z,58.84
2023-12-11T02:26:16.839Z,59.16
2023-12-11T02:27:16.837Z,58.61
2023-12-11T02:28:16.863Z,57.59
2023-12-11T02:29:16.850Z,58.10
2023-12-11T02:30:16.860Z,61.19
2023-12-11T02:31:16.910Z,58.62
2023-12-11T02:32:16.848Z,58.72
2023-12-11T02:33:16.905Z,59.68
2023-12-11T02:34:16.864Z,60.59
2023-12-11T02:35:16.842Z,58.26
2023-12-11T02:36:16.869Z,58.33
2023-12-11T02:37:16.875Z,58.53
2023-12-11T02:38:16.911Z,57.91
2023-12-11T02:39:16.855Z,56.36
2023-12-11T02:40:16.926Z,58.59
2023-12-11T02:41:16.906Z,58.64
2023-12-11T02:42:16.882Z,58.80
2023-12-11T02:43:16.873Z,57.68
2023-12-11T02:44:16.856Z,60.03
2023-12-11T02:45:16.861Z,58.21
2023-12-11T02:46:16.920Z,58.15
2023-12-11T02:47:16.869Z,58.77
2023-12-11T02:48:16.975Z,57.89
2023-12-11T02:49:16.992Z,58.38
2023-12-11T02:50:16.864Z,59.01
2023-12-11T02:51:16.906Z,57.69
2023-12-11T02:52:16.906Z,58.37
2023-12-11T02:53:16.865Z,58.10
2023-12-11T02:54:16.901Z,58.46
2023-12-11T02:55:16.894Z,59.03
2023-12-11T02:56:16.874Z,59.10
2023-12-11T02:57:16.874Z,59.13
2023-12-11T02:58:16.909Z,60.22
2023-12-11T02:59:17.316Z,58.47
2023-12-11T03:00:16.879Z,57.10
2023-12-11T03:01:17.034Z,58.14
2023-12-11T03:02:16.903Z,58.47
2023-12-11T03:03:16.943Z,59.57
2023-12-11T03:04:16.993Z,57.39
2023-12-11T03:05:16.924Z,58.01
2023-12-11T03:06:16.956Z,58.97
2023-12-11T03:07:16.990Z,57.14
2023-12-11T03:08:16.936Z,57.76
2023-12-11T03:09:16.948Z,56.79
2023-12-11T03:10:17.030Z,58.40
2023-12-11T03:11:16.979Z,57.65
2023-12-11T03:12:16.974Z,59.50
2023-12-11T03:13:17.018Z,59.90
2023-12-11T03:14:16.968Z,59.97
2023-12-11T03:15:16.973Z,57.80
2023-12-11T03:16:17.023Z,57.55
2023-12-11T03:17:16.985Z,58.89
2023-12-11T03:18:17.057Z,57.90
2023-12-11T03:19:17.074Z,57.53
2023-12-11T03:20:17.007Z,57.31
2023-12-11T03:21:17.013Z,58.78
2023-12-11T03:22:17.023Z,57.67
2023-12-11T03:23:16.997Z,57.09
2023-12-11T03:24:17.006Z,59.61
2023-12-11T03:25:17.122Z,57.61
2023-12-11T03:26:17.029Z,58.03
2023-12-11T03:27:17.019Z,59.61
2023-12-11T03:28:17.041Z,58.92
2023-12-11T03:29:17.032Z,59.12
2023-12-11T03:30:17.031Z,58.89
2023-12-11T03:31:17.104Z,60.56
2023-12-11T03:32:17.043Z,57.82
2023-12-11T03:33:17.062Z,56.17
2023-12-11T03:34:17.064Z,58.69
2023-12-11T03:35:17.055Z,58.13
2023-12-11T03:36:17.057Z,58.41
2023-12-11T03:37:17.056Z,61.05
2023-12-11T03:38:17.062Z,58.35
2023-12-11T03:39:17.071Z,58.41
2023-12-11T03:40:17.112Z,59.03
2023-12-11T03:41:17.080Z,58.65
2023-12-11T03:42:17.079Z,59.06
2023-12-11T03:43:17.133Z,58.94
2023-12-11T03:44:17.078Z,58.67
2023-12-11T03:45:17.089Z,59.39
2023-12-11T03:46:17.141Z,59.20
2023-12-11T03:47:17.100Z,57.82
2023-12-11T03:48:17.173Z,59.74
2023-12-11T03:49:17.171Z,58.88
2023-12-11T03:50:17.093Z,59.33
2023-12-11T03:51:17.094Z,56.34
2023-12-11T03:52:17.133Z,57.99
2023-12-11T03:53:17.092Z,58.14
2023-12-11T03:54:17.106Z,59.53
2023-12-11T03:55:17.136Z,58.96
2023-12-11T03:56:17.121Z,58.54
2023-12-11T03:57:17.121Z,61.54
2023-12-11T03:58:17.210Z,57.16
2023-12-11T03:59:17.140Z,57.59
2023-12-11T04:00:17.156Z,58.19
2023-12-11T04:01:17.251Z,58.97
2023-12-11T04:02:17.343Z,55.70
2023-12-11T04:03:17.139Z,58.65
2023-12-11T04:04:17.257Z,59.80
2023-12-11T04:05:17.152Z,58.59
2023-12-11T04:06:17.168Z,56.55
2023-12-11T04:07:17.222Z,58.93
2023-12-11T04:08:17.199Z,58.73
2023-12-11T04:09:17.234Z,57.59
2023-12-11T04:10:17.291Z,59.60
2023-12-11T04:11:17.296Z,58.15
2023-12-11T04:12:17.339Z,58.09
2023-12-11T04:13:17.461Z,59.06
2023-12-11T04:14:17.430Z,59.98
2023-12-11T04:15:17.487Z,59.46
2023-12-11T04:16:17.545Z,59.13
2023-12-11T04:17:17.604Z,59.40
2023-12-11T04:18:17.693Z,58.33
2023-12-11T04:19:17.782Z,59.14
2023-12-11T04:20:17.726Z,59.43
2023-12-11T04:21:17.850Z,59.40
2023-12-11T04:22:17.856Z,58.78
2023-12-11T04:23:17.861Z,59.63
2023-12-11T04:24:17.921Z,57.74
2023-12-11T04:25:18.033Z,59.32
2023-12-11T04:26:18.017Z,58.40
2023-12-11T04:27:18.075Z,58.42
2023-12-11T04:28:18.152Z,58.30
2023-12-11T04:29:18.198Z,57.06
2023-12-11T04:30:18.313Z,57.75
2023-12-11T04:31:18.336Z,56.98
2023-12-11T04:32:18.390Z,58.24
2023-12-11T04:33:18.542Z,58.17
2023-12-11T04:34:18.503Z,59.11
2023-12-11T04:35:18.533Z,56.56
2023-12-11T04:36:18.607Z,57.23
2023-12-11T04:37:18.681Z,56.28
2023-12-11T04:38:18.705Z,55.07
2023-12-11T04:39:18.759Z,56.58
2023-12-11T04:40:18.841Z,58.57
2023-12-11T04:41:18.871Z,57.52
2023-12-11T04:42:18.952Z,56.98
2023-12-11T04:43:18.983Z,59.87
2023-12-11T04:44:19.041Z,59.77
2023-12-11T04:45:19.084Z,57.30
2023-12-11T04:46:19.193Z,56.82
2023-12-11T04:47:19.198Z,58.26
2023-12-11T04:48:19.350Z,57.71
2023-12-11T04:49:19.378Z,56.62
2023-12-11T04:50:19.378Z,56.99
2023-12-11T04:51:19.448Z,58.77
2023-12-11T04:52:19.528Z,57.97
2023-12-11T04:53:19.564Z,58.05
2023-12-11T04:54:19.615Z,58.01
2023-12-11T04:55:19.746Z,56.25
2023-12-11T04:56:19.745Z,57.45
2023-12-11T04:57:19.794Z,58.03
2023-12-11T04:58:19.881Z,58.04
2023-12-11T04:59:19.908Z,57.62
2023-12-11T05:00:19.982Z,57.26
2023-12-11T05:01:20.107Z,57.20
2023-12-11T05:02:20.102Z,56.72
2023-12-11T05:03:27.458Z,50.00
2023-12-11T05:04:27.448Z,50.00
2023-12-11T05:05:27.602Z,50.00
2023-12-11T05:06:27.486Z,50.00
2023-12-11T05:07:27.603Z,50.00
2023-12-11T05:08:30.118Z,51.54
2023-12-11T05:09:27.481Z,51.56
2023-12-11T05:10:27.498Z,51.67
2023-12-11T05:11:27.579Z,50.05
2023-12-11T05:12:27.506Z,48.01
2023-12-11T05:13:27.497Z,48.59
2023-12-11T05:14:27.489Z,50.16
2023-12-11T05:15:27.494Z,52.39
2023-12-11T05:16:28.297Z,53.40
2023-12-11T05:17:27.615Z,51.74
2023-12-11T05:18:27.504Z,51.89
2023-12-11T05:19:27.602Z,51.45
2023-12-11T05:20:27.518Z,51.62
2023-12-11T05:21:27.527Z,52.48
2023-12-11T05:22:27.573Z,51.30
2023-12-11T05:23:27.523Z,50.86
2023-12-11T05:24:27.531Z,52.52
2023-12-11T05:25:27.535Z,52.50
2023-12-11T05:26:27.541Z,51.59
2023-12-11T05:27:27.675Z,50.95
2023-12-11T05:28:27.569Z,50.51
2023-12-11T05:29:27.567Z,51.66
2023-12-11T05:30:27.628Z,51.10
2023-12-11T05:31:27.562Z,53.42
2023-12-11T05:32:27.625Z,52.19
2023-12-11T05:33:27.652Z,52.26
2023-12-11T05:34:27.661Z,52.68
2023-12-11T05:35:27.590Z,53.69
2023-12-11T05:36:27.612Z,51.76
2023-12-11T05:37:27.824Z,52.06
2023-12-11T05:38:27.614Z,51.91
2023-12-11T05:39:27.615Z,53.04
2023-12-11T05:40:27.745Z,52.17
2023-12-11T05:41:27.627Z,52.78
2023-12-11T05:42:27.613Z,52.18
2023-12-11T05:43:27.609Z,52.24
2023-12-11T05:44:27.635Z,51.47
2023-12-11T05:45:27.702Z,51.58
2023-12-11T05:46:27.752Z,53.86
2023-12-11T05:47:28.068Z,53.36
2023-12-11T05:48:27.990Z,51.08
2023-12-11T05:49:28.006Z,53.70
2023-12-11T05:50:27.986Z,54.80
2023-12-11T05:51:28.051Z,51.59
2023-12-11T05:52:29.096Z,53.47
2023-12-11T05:53:29.008Z,54.58
2023-12-11T05:54:28.243Z,53.06
2023-12-11T05:55:28.293Z,54.08
2023-12-11T05:56:28.403Z,54.93
2023-12-11T05:57:28.613Z,53.41
2023-12-11T05:58:28.486Z,54.09
2023-12-11T05:59:28.526Z,52.91
2023-12-11T06:00:28.602Z,54.43
2023-12-11T06:01:28.809Z,52.96
2023-12-11T06:02:28.709Z,52.27
2023-12-11T06:03:28.748Z,53.85
2023-12-11T06:04:28.801Z,51.84
2023-12-11T06:05:28.930Z,52.75
2023-12-11T06:06:30.943Z,54.03
2023-12-11T06:07:29.142Z,51.10
2023-12-11T06:08:28.912Z,52.85
2023-12-11T06:09:28.915Z,53.60
2023-12-11T06:10:28.955Z,53.92
2023-12-11T06:11:28.931Z,52.93
2023-12-11T06:12:28.930Z,51.55
2023-12-11T06:13:28.945Z,52.99
2023-12-11T06:14:28.960Z,52.65
2023-12-11T06:15:28.960Z,51.93
2023-12-11T06:16:28.981Z,54.25
2023-12-11T06:17:29.250Z,52.45
2023-12-11T06:18:29.023Z,52.57
2023-12-11T06:19:29.033Z,52.23
2023-12-11T06:20:28.973Z,53.40
2023-12-11T06:21:28.981Z,52.88
2023-12-11T06:22:28.988Z,51.23
2023-12-11T06:23:28.989Z,53.30
2023-12-11T06:24:28.999Z,51.76
2023-12-11T06:25:28.986Z,51.64
2023-12-11T06:26:28.992Z,51.60
2023-12-11T06:27:29.408Z,52.49
2023-12-11T06:28:29.000Z,50.99
2023-12-11T06:29:28.993Z,52.33
2023-12-11T06:30:29.084Z,51.83
2023-12-11T06:31:29.009Z,54.66
2023-12-11T06:32:29.015Z,56.29
2023-12-11T06:33:29.019Z,56.32
2023-12-11T06:34:29.153Z,54.23
2023-12-11T06:35:29.085Z,54.41
2023-12-11T06:36:29.019Z,56.19
2023-12-11T06:37:29.179Z,58.66
2023-12-11T06:38:29.068Z,59.87
2023-12-11T06:39:29.087Z,63.80
2023-12-11T06:40:29.044Z,65.46
2023-12-11T06:41:29.061Z,69.12
2023-12-11T06:42:29.055Z,68.64
2023-12-11T06:43:29.108Z,73.19
2023-12-11T06:44:29.064Z,74.91
2023-12-11T06:45:30.421Z,79.73
2023-12-11T06:46:29.101Z,86.90
2023-12-11T06:47:29.355Z,85.44
2023-12-11T06:48:29.093Z,89.64
2023-12-11T06:49:30.614Z,94.24
2023-12-11T06:50:29.161Z,100.41
2023-12-11T06:51:29.077Z,100.28
2023-12-11T06:52:29.031Z,103.69
2023-12-11T06:53:29.031Z,106.11
2023-12-11T06:54:29.028Z,108.68
2023-12-11T06:55:29.108Z,111.79
2023-12-11T06:56:29.029Z,116.28
2023-12-11T06:57:29.297Z,116.25
2023-12-11T06:58:29.069Z,121.71
2023-12-11T06:59:29.023Z,123.40
2023-12-11T07:00:29.035Z,125.15
2023-12-11T07:01:29.119Z,127.07
2023-12-11T07:02:29.145Z,131.47
2023-12-11T07:03:29.124Z,133.63
2023-12-11T07:04:29.364Z,135.04
2023-12-11T07:05:29.162Z,136.99
2023-12-11T07:06:29.056Z,139.52
2023-12-11T07:07:29.234Z,139.86
2023-12-11T07:08:29.032Z,142.42
2023-12-11T07:09:29.081Z,144.16
2023-12-11T07:10:29.139Z,148.25
2023-12-11T07:11:29.198Z,151.14
2023-12-11T07:12:29.263Z,151.81
2023-12-11T07:13:29.371Z,153.12
2023-12-11T07:14:29.442Z,155.51
2023-12-11T07:15:29.433Z,158.05
2023-12-11T07:16:29.490Z,160.41
2023-12-11T07:17:30.705Z,161.50
2023-12-11T07:18:29.695Z,164.13
2023-12-11T07:19:30.185Z,164.86
2023-12-11T07:20:29.688Z,167.04
2023-12-11T07:21:29.817Z,168.92
2023-12-11T07:22:29.789Z,172.34
2023-12-11T07:23:29.849Z,176.32
2023-12-11T07:24:30.657Z,179.43
2023-12-11T07:25:29.998Z,184.54
2023-12-11T07:26:29.986Z,187.97
2023-12-11T07:27:30.184Z,191.84
2023-12-11T07:28:30.063Z,192.16
2023-12-11T07:29:30.116Z,195.33
2023-12-11T07:30:30.406Z,197.51
2023-12-11T07:31:30.201Z,198.48
2023-12-11T07:32:30.277Z,199.65
2023-12-11T07:33:30.369Z,199.38
2023-12-11T07:34:30.727Z,199.82
2023-12-11T07:35:30.398Z,198.17
2023-12-11T07:36:30.396Z,200.40
2023-12-11T07:37:30.625Z,199.76
2023-12-11T07:38:30.456Z,199.71
2023-12-11T07:39:30.497Z,198.46
2023-12-11T07:40:30.543Z,198.63
2023-12-11T07:41:30.588Z,197.89
2023-12-11T07:42:30.631Z,199.36
2023-12-11T07:43:30.650Z,198.16
2023-12-11T07:44:30.698Z,198.46
2023-12-11T07:45:30.717Z,199.91
2023-12-11T07:46:30.770Z,192.85
2023-12-11T07:47:31.052Z,189.60
2023-12-11T07:48:30.894Z,188.77
2023-12-11T07:49:31.105Z,182.66
2023-12-11T07:50:30.968Z,186.20
2023-12-11T07:51:31.018Z,176.27
2023-12-11T07:52:31.055Z,169.88
2023-12-11T07:53:31.032Z,166.63
2023-12-11T07:54:31.048Z,164.30
2023-12-11T07:55:31.096Z,161.97
2023-12-11T07:56:31.195Z,159.68
2023-12-11T07:57:31.470Z,158.72
2023-12-11T07:58:31.262Z,155.09
2023-12-11T07:59:31.317Z,153.95
2023-12-11T08:00:31.379Z,153.32
2023-12-11T08:01:31.532Z,152.63
2023-12-11T08:02:31.510Z,151.83
2023-12-11T08:03:31.636Z,151.52
2023-12-11T08:04:31.724Z,150.90
2023-12-11T08:05:31.717Z,151.00
2023-12-11T08:06:31.720Z,151.27
2023-12-11T08:07:32.064Z,152.23
2023-12-11T08:08:31.829Z,152.76
2023-12-11T08:09:31.903Z,151.49
2023-12-11T08:10:32.131Z,148.67
2023-12-11T08:11:32.015Z,147.11
2023-12-11T08:12:32.105Z,142.80
2023-12-11T08:13:32.146Z,142.38
2023-12-11T08:14:32.208Z,139.00
2023-12-11T08:15:32.277Z,136.61
2023-12-11T08:16:32.341Z,134.62
2023-12-11T08:17:32.639Z,132.05
2023-12-11T08:18:32.522Z,130.50
2023-12-11T08:19:32.591Z,123.84
2023-12-11T08:20:32.585Z,111.43
2023-12-11T08:21:32.630Z,107.81
2023-12-11T08:22:32.704Z,102.11
2023-12-11T08:23:32.752Z,93.33
2023-12-11T08:24:32.808Z,88.40
2023-12-11T08:25:33.668Z,83.00
2023-12-11T08:26:32.933Z,75.24
2023-12-11T08:27:33.026Z,68.68
2023-12-11T08:28:33.097Z,65.18
2023-12-11T08:29:33.095Z,61.37
2023-12-11T08:30:33.155Z,59.61
2023-12-11T08:31:33.156Z,58.10
2023-12-11T08:32:34.191Z,54.28
2023-12-11T08:33:33.329Z,53.12
2023-12-11T08:34:34.165Z,51.24
2023-12-11T08:35:33.418Z,50.00
2023-12-11T08:36:33.481Z,51.41
2023-12-11T08:37:33.860Z,51.51
2023-12-11T08:38:33.591Z,50.14
2023-12-11T08:39:33.647Z,53.35
2023-12-11T08:40:33.708Z,52.20
2023-12-11T08:41:33.724Z,55.68
2023-12-11T08:42:36.322Z,56.27
2023-12-11T08:43:34.820Z,56.38
2023-12-11T08:44:33.767Z,56.62
2023-12-11T08:45:33.773Z,57.38
2023-12-11T08:46:33.782Z,57.84
2023-12-11T08:47:37.348Z,59.83
2023-12-11T08:48:34.986Z,56.60
2023-12-11T08:49:33.862Z,57.66
2023-12-11T08:50:33.754Z,59.94
2023-12-11T08:51:33.731Z,63.93
2023-12-11T08:52:33.742Z,68.72
2023-12-11T08:53:33.721Z,71.74
2023-12-11T08:54:33.723Z,72.05
2023-12-11T08:55:33.716Z,73.66
2023-12-11T08:56:33.754Z,74.61
2023-12-11T08:57:33.963Z,76.31
2023-12-11T08:58:33.898Z,79.59
2023-12-11T08:59:33.992Z,80.13
2023-12-11T09:00:33.964Z,83.77
2023-12-11T09:01:34.081Z,82.38
2023-12-11T09:02:34.053Z,85.50
2023-12-11T09:03:34.092Z,86.96
2023-12-11T09:04:34.253Z,88.94
2023-12-11T09:05:34.178Z,88.46
2023-12-11T09:06:34.171Z,90.74
2023-12-11T09:07:34.401Z,93.08
2023-12-11T09:08:34.231Z,95.13
2023-12-11T09:09:34.261Z,96.40
2023-12-11T09:10:34.299Z,98.28
2023-12-11T09:11:35.169Z,97.96
2023-12-11T09:12:34.417Z,98.83
2023-12-11T09:13:34.409Z,102.16
2023-12-11T09:14:34.399Z,102.95
2023-12-11T09:15:34.580Z,103.69
2023-12-11T09:16:34.530Z,105.60
2023-12-11T09:17:34.946Z,104.26
2023-12-11T09:18:34.747Z,104.54
2023-12-11T09:19:44.206Z,103.90
2023-12-11T09:20:35.792Z,104.07
2023-12-11T09:21:34.585Z,104.36
2023-12-11T09:22:34.555Z,104.29
2023-12-11T09:23:34.533Z,104.40
2023-12-11T09:24:34.517Z,102.23
2023-12-11T09:25:36.681Z,99.38
2023-12-11T09:26:34.553Z,101.33
2023-12-11T09:27:34.564Z,100.69
2023-12-11T09:28:41.561Z,97.19
2023-12-11T09:29:35.606Z,97.38
2023-12-11T09:30:34.596Z,96.64
2023-12-11T09:31:34.612Z,94.47
2023-12-11T09:32:34.642Z,94.94
2023-12-11T09:33:34.658Z,96.16
2023-12-11T09:34:34.794Z,94.31
2023-12-11T09:35:34.626Z,93.22
2023-12-11T09:36:34.558Z,93.48
2023-12-11T09:37:34.599Z,93.38
2023-12-11T09:38:34.516Z,88.69
2023-12-11T09:39:34.505Z,92.47
2023-12-11T09:40:34.506Z,90.97
2023-12-11T09:41:34.509Z,90.38
2023-12-11T09:42:35.195Z,91.44
2023-12-11T09:43:34.463Z,88.92
2023-12-11T09:44:34.455Z,87.86
2023-12-11T09:45:34.448Z,90.37
2023-12-11T09:46:34.441Z,89.13
2023-12-11T09:47:34.937Z,85.54
2023-12-11T09:48:35.248Z,88.56
2023-12-11T09:49:34.454Z,87.86
2023-12-11T09:50:34.488Z,86.84
2023-12-11T09:51:34.410Z,87.64
2023-12-11T09:52:35.715Z,85.99
2023-12-11T09:53:34.428Z,87.78
2023-12-11T09:54:34.453Z,87.04
2023-12-11T09:55:34.451Z,84.80
2023-12-11T09:56:34.478Z,84.86
2023-12-11T09:57:34.470Z,84.98
2023-12-11T09:58:34.490Z,84.61
2023-12-11T09:59:34.487Z,85.19
2023-12-11T10:00:34.516Z,84.17
2023-12-11T10:01:34.611Z,82.78
2023-12-11T10:02:34.590Z,82.72
2023-12-11T10:03:34.698Z,85.08
2023-12-11T10:04:35.249Z,85.50
2023-12-11T10:05:34.631Z,84.90
2023-12-11T10:06:34.670Z,83.95
2023-12-11T10:07:34.688Z,82.61
2023-12-11T10:08:34.712Z,83.49
2023-12-11T10:09:34.716Z,82.57
2023-12-11T10:10:34.974Z,83.74
2023-12-11T10:11:35.613Z,82.68
2023-12-11T10:12:34.787Z,83.72
2023-12-11T10:13:34.815Z,81.85
2023-12-11T10:14:34.838Z,80.96
2023-12-11T10:15:34.876Z,81.89
2023-12-11T10:16:34.920Z,81.09
2023-12-11T10:17:35.323Z,83.99
2023-12-11T10:18:35.042Z,82.17
2023-12-11T10:19:35.201Z,81.26
2023-12-11T10:20:35.906Z,80.53
2023-12-11T10:21:35.048Z,81.50
2023-12-11T10:22:35.056Z,82.48
2023-12-11T10:23:35.078Z,83.83
2023-12-11T10:24:35.122Z,85.30
2023-12-11T10:25:35.185Z,88.67
2023-12-11T10:26:35.201Z,87.89
2023-12-11T10:27:35.063Z,90.70
2023-12-11T10:28:35.802Z,91.28
2023-12-11T10:29:35.704Z,95.25
2023-12-11T10:30:35.074Z,95.82
2023-12-11T10:31:35.702Z,98.67
2023-12-11T10:32:35.119Z,99.40
2023-12-11T10:33:35.454Z,102.47
2023-12-11T10:34:36.215Z,105.99
2023-12-11T10:35:35.267Z,106.99
2023-12-11T10:36:35.282Z,107.91
2023-12-11T10:37:35.318Z,110.86
2023-12-11T10:38:35.365Z,111.80
2023-12-11T10:39:35.397Z,115.77
2023-12-11T10:40:35.444Z,116.65
2023-12-11T10:41:35.489Z,117.55
2023-12-11T10:42:35.515Z,120.62
2023-12-11T10:43:50.533Z,122.22
2023-12-11T10:44:46.662Z,122.39
2023-12-11T10:45:36.516Z,122.59
2023-12-11T10:46:35.584Z,123.58
2023-12-11T10:47:35.948Z,125.76
2023-12-11T10:48:35.578Z,130.00
2023-12-11T10:49:36.478Z,122.78
2023-12-11T10:50:35.441Z,124.57
2023-12-11T10:51:35.434Z,128.47
2023-12-11T10:52:35.477Z,133.21
2023-12-11T10:53:35.406Z,141.15
2023-12-11T10:54:35.401Z,140.19
2023-12-11T10:55:35.538Z,142.97
2023-12-11T10:56:35.400Z,142.59
2023-12-11T10:57:35.693Z,148.00
2023-12-11T10:58:35.307Z,149.25
2023-12-11T10:59:35.292Z,150.18
2023-12-11T11:00:35.318Z,149.97
2023-12-11T11:01:35.358Z,151.11
2023-12-11T11:02:35.288Z,156.58
2023-12-11T11:03:35.304Z,154.98
2023-12-11T11:04:35.238Z,164.14
2023-12-11T11:05:35.313Z,164.92
2023-12-11T11:06:35.213Z,167.39
2023-12-11T11:07:35.532Z,168.33
2023-12-11T11:08:35.155Z,167.66
2023-12-11T11:09:35.142Z,171.66
2023-12-11T11:10:35.131Z,171.70
2023-12-11T11:11:35.112Z,171.47
2023-12-11T11:12:36.737Z,170.66
2023-12-11T11:13:35.148Z,174.54
2023-12-11T11:14:35.163Z,169.80
2023-12-11T11:15:35.204Z,158.47
2023-12-11T11:16:35.226Z,148.85
2023-12-11T11:17:35.449Z,156.82
2023-12-11T11:18:35.453Z,158.47
2023-12-11T11:19:35.388Z,148.81
2023-12-11T11:20:36.158Z,150.52
2023-12-11T11:21:36.450Z,150.29
2023-12-11T11:22:38.878Z,151.71
2023-12-11T11:23:37.170Z,150.28
2023-12-11T11:24:35.536Z,151.69
2023-12-11T11:25:35.604Z,152.38
2023-12-11T11:26:35.711Z,147.68
2023-12-11T11:27:35.403Z,150.27
2023-12-11T11:28:35.546Z,152.89
2023-12-11T11:29:35.373Z,152.90
2023-12-11T11:30:35.366Z,153.70
2023-12-11T11:31:35.373Z,152.61
2023-12-11T11:32:35.341Z,155.48
2023-12-11T11:33:35.323Z,157.05
2023-12-11T11:34:35.312Z,158.28
2023-12-11T11:35:35.251Z,155.15
2023-12-11T11:36:35.229Z,162.41
2023-12-11T11:37:35.277Z,167.62
2023-12-11T11:38:35.206Z,166.83
2023-12-11T11:39:37.800Z,167.05
2023-12-11T11:40:35.342Z,167.08
2023-12-11T11:41:35.219Z,167.88
2023-12-11T11:42:35.148Z,169.46
2023-12-11T11:43:35.118Z,169.44
2023-12-11T11:44:35.106Z,170.49
2023-12-11T11:45:35.086Z,177.90
2023-12-11T11:46:35.067Z,178.11
2023-12-11T11:47:35.220Z,182.52
2023-12-11T11:48:35.111Z,178.80
2023-12-11T11:49:35.077Z,182.11
2023-12-11T11:50:34.982Z,182.40
2023-12-11T11:51:34.960Z,189.44
2023-12-11T11:52:34.978Z,186.20
2023-12-11T11:53:34.925Z,187.79
2023-12-11T11:54:34.905Z,196.26
2023-12-11T11:55:34.999Z,190.91
2023-12-11T11:56:34.872Z,193.33
2023-12-11T11:57:34.846Z,195.30
2023-12-11T11:58:34.825Z,195.68
2023-12-11T11:59:34.795Z,199.57
2023-12-11T12:00:34.804Z,199.94
2023-12-11T12:01:35.943Z,192.47
2023-12-11T12:02:34.744Z,193.34
2023-12-11T12:03:34.773Z,196.18
2023-12-11T12:04:34.823Z,197.61
2023-12-11T12:05:34.676Z,196.55
2023-12-11T12:06:34.666Z,199.05
2023-12-11T12:07:34.662Z,194.62
2023-12-11T12:08:34.624Z,197.18
2023-12-11T12:09:34.611Z,196.50
2023-12-11T12:10:34.634Z,199.00
2023-12-11T12:11:34.551Z,198.00
2023-12-11T12:12:34.534Z,194.45
2023-12-11T12:13:34.597Z,193.84
2023-12-11T12:14:35.249Z,195.93
2023-12-11T12:15:34.496Z,190.48
2023-12-11T12:16:34.474Z,192.30
2023-12-11T12:17:35.026Z,196.30
2023-12-11T12:18:34.616Z,192.30
2023-12-11T12:19:34.634Z,192.45
2023-12-11T12:20:34.410Z,189.92
2023-12-11T12:21:34.395Z,193.99
2023-12-11T12:22:34.629Z,192.59
2023-12-11T12:23:34.456Z,189.75
2023-12-11T12:24:34.355Z,190.21
2023-12-11T12:25:34.403Z,185.59
2023-12-11T12:26:34.329Z,185.45
2023-12-11T12:27:34.379Z,190.38
2023-12-11T12:28:34.294Z,186.95
2023-12-11T12:29:34.284Z,187.96
2023-12-11T12:30:34.251Z,191.29
2023-12-11T12:31:34.273Z,188.62
2023-12-11T12:32:34.337Z,185.57
2023-12-11T12:33:34.422Z,186.46
2023-12-11T12:34:34.500Z,189.76
2023-12-11T12:35:34.490Z,189.66
2023-12-11T12:36:34.525Z,182.69
2023-12-11T12:37:34.991Z,187.19
2023-12-11T12:38:34.634Z,184.69
2023-12-11T12:39:34.680Z,178.18
2023-12-11T12:40:34.734Z,183.06
2023-12-11T12:41:34.819Z,184.94
2023-12-11T12:42:34.855Z,182.10
2023-12-11T12:43:34.916Z,180.76
2023-12-11T12:44:34.942Z,183.27